createdAt,value
2022-12-11T00:01:46.570Z,75.47
2022-12-11T00:04:13.558Z,75.75
2022-12-11T00:06:40.453Z,75.28
2022-12-11T00:09:07.338Z,75.14
2022-12-11T00:11:34.205Z,75.24
2022-12-11T00:14:01.212Z,75.13
2022-12-11T00:16:28.130Z,75.02
2022-12-11T00:18:55.570Z,75.39
2022-12-11T00:21:22.499Z,76.17
2022-12-11T00:23:49.462Z,75.60
2022-12-11T00:26:17.001Z,75.37
2022-12-11T00:28:45.606Z,74.63
2022-12-11T00:31:20.297Z,75.58
2022-12-11T00:33:48.269Z,74.62
2022-12-11T00:36:23.933Z,75.30
2022-12-11T00:38:51.519Z,75.38
2022-12-11T00:41:19.092Z,75.26
2022-12-11T00:43:46.696Z,75.66
2022-12-11T00:46:14.388Z,75.15
2022-12-11T00:48:41.413Z,74.57
2022-12-11T00:51:08.458Z,74.51
2022-12-11T00:53:35.425Z,74.51
2022-12-11T00:56:02.298Z,74.24
2022-12-11T00:58:29.263Z,75.06
2022-12-11T01:01:16.067Z,75.46
2022-12-11T01:03:43.500Z,75.07
2022-12-11T01:06:15.666Z,75.22
2022-12-11T01:08:43.905Z,75.32
2022-12-11T01:11:13.265Z,75.04
2022-12-11T01:13:42.089Z,75.60
2022-12-11T01:16:14.652Z,75.96
2022-12-11T01:18:42.678Z,75.32
2022-12-11T01:21:13.030Z,75.44
2022-12-11T01:23:40.837Z,75.94
2022-12-11T01:26:13.172Z,75.72
2022-12-11T01:28:41.147Z,76.03
2022-12-11T01:31:12.771Z,76.13
2022-12-11T01:33:40.428Z,75.79
2022-12-11T01:36:13.702Z,75.73
2022-12-11T01:38:41.675Z,75.91
2022-12-11T01:41:10.389Z,75.66
2022-12-11T01:44:16.135Z,76.66
2022-12-11T01:46:43.665Z,76.16
2022-12-11T01:49:13.967Z,75.97
2022-12-11T01:51:57.012Z,76.86
2022-12-11T01:54:25.830Z,76.48
2022-12-11T01:56:55.430Z,76.17
2022-12-11T01:59:26.393Z,76.12
2022-12-11T02:02:21.734Z,76.19
2022-12-11T02:04:48.818Z,76.16
2022-12-11T02:07:15.754Z,76.02
2022-12-11T02:09:45.262Z,76.34
2022-12-11T02:12:41.211Z,75.96
2022-12-11T02:15:14.008Z,76.35
2022-12-11T02:17:43.759Z,76.15
2022-12-11T02:20:38.078Z,76.36
2022-12-11T02:23:41.510Z,75.85
2022-12-11T02:26:36.264Z,76.42
2022-12-11T02:29:07.348Z,76.59
2022-12-11T02:31:39.904Z,75.77
2022-12-11T02:34:26.861Z,76.51
2022-12-11T02:36:59.302Z,76.39
2022-12-11T02:39:28.590Z,76.51
2022-12-11T02:41:56.830Z,76.03
2022-12-11T02:44:28.249Z,76.09
2022-12-11T02:46:55.957Z,75.85
2022-12-11T02:49:24.558Z,76.48
2022-12-11T02:51:53.420Z,76.18
2022-12-11T02:54:27.478Z,75.84
2022-12-11T02:57:06.453Z,76.00
2022-12-11T02:59:39.844Z,76.14
2022-12-11T03:02:07.707Z,76.07
2022-12-11T03:04:36.563Z,76.50
2022-12-11T03:07:08.075Z,75.66
2022-12-11T03:09:35.040Z,76.07
2022-12-11T03:12:02.020Z,76.21
2022-12-11T03:14:29.017Z,76.42
2022-12-11T03:17:05.181Z,76.35
2022-12-11T03:19:39.983Z,76.22
2022-12-11T03:22:16.485Z,76.91
2022-12-11T03:24:49.673Z,77.10
2022-12-11T03:27:24.565Z,76.72
2022-12-11T03:30:00.014Z,76.44
2022-12-11T03:32:34.819Z,76.48
2022-12-11T03:35:13.724Z,76.71
2022-12-11T03:37:42.325Z,76.57
2022-12-11T03:40:16.966Z,76.34
2022-12-11T03:42:47.340Z,77.04
2022-12-11T03:45:16.567Z,76.57
2022-12-11T03:47:45.906Z,76.12
2022-12-11T03:50:16.485Z,76.38
2022-12-11T03:52:46.519Z,75.93
2022-12-11T03:55:16.632Z,76.14
2022-12-11T03:57:43.894Z,75.99
2022-12-11T04:00:15.293Z,75.83
2022-12-11T04:02:43.020Z,76.08
2022-12-11T04:05:10.729Z,75.54
2022-12-11T04:07:38.056Z,75.78
2022-12-11T04:10:07.102Z,75.65
2022-12-11T04:12:34.061Z,75.73
2022-12-11T04:15:00.921Z,75.31
2022-12-11T04:17:32.899Z,75.56
2022-12-11T04:19:59.867Z,75.75
2022-12-11T04:22:26.732Z,75.80
2022-12-11T04:24:53.976Z,75.25
2022-12-11T04:27:20.898Z,74.93
2022-12-11T04:29:47.827Z,75.37
2022-12-11T04:32:14.716Z,75.36
2022-12-11T04:34:41.682Z,74.82
2022-12-11T04:37:08.570Z,75.08
2022-12-11T04:39:35.527Z,75.26
2022-12-11T04:42:02.346Z,75.34
2022-12-11T04:44:29.284Z,75.07
2022-12-11T04:46:56.184Z,75.26
2022-12-11T04:49:23.088Z,75.12
2022-12-11T04:51:49.907Z,74.95
2022-12-11T04:54:16.972Z,74.82
2022-12-11T04:56:43.952Z,74.55
2022-12-11T04:59:10.853Z,74.46
2022-12-11T05:01:37.800Z,74.60
2022-12-11T05:04:04.959Z,74.72
2022-12-11T05:06:31.808Z,74.61
2022-12-11T05:08:58.757Z,74.71
2022-12-11T05:11:25.637Z,74.83
2022-12-11T05:13:52.684Z,74.89
2022-12-11T05:16:19.673Z,74.96
2022-12-11T05:18:46.845Z,75.21
2022-12-11T05:21:15.205Z,75.45
2022-12-11T05:23:42.430Z,75.15
2022-12-11T05:26:14.528Z,75.41
2022-12-11T05:28:42.024Z,75.70
2022-12-11T05:31:13.671Z,75.56
2022-12-11T05:33:40.850Z,75.68
2022-12-11T05:36:09.076Z,75.75
2022-12-11T05:38:35.977Z,75.15
2022-12-11T05:41:06.041Z,75.28
2022-12-11T05:43:36.010Z,75.22
2022-12-11T05:46:10.263Z,75.53
2022-12-11T05:48:38.463Z,75.18
2022-12-11T05:51:06.975Z,75.03
2022-12-11T05:53:35.762Z,75.57
2022-12-11T05:56:05.045Z,75.67
2022-12-11T05:58:32.661Z,75.08
2022-12-11T06:00:59.868Z,74.67
2022-12-11T06:03:27.063Z,74.92
2022-12-11T06:05:53.981Z,75.36
2022-12-11T06:08:20.989Z,75.32
2022-12-11T06:10:49.880Z,75.20
2022-12-11T06:13:17.413Z,74.91
2022-12-11T06:15:44.384Z,75.09
2022-12-11T06:18:11.461Z,74.90
2022-12-11T06:20:38.716Z,75.82
2022-12-11T06:23:05.930Z,75.39
2022-12-11T06:25:32.938Z,75.59
2022-12-11T06:28:00.109Z,75.08
2022-12-11T06:30:39.025Z,75.24
2022-12-11T06:33:09.426Z,74.86
2022-12-11T06:35:41.645Z,74.53
2022-12-11T06:38:09.836Z,74.88
2022-12-11T06:40:36.711Z,74.74
2022-12-11T06:43:03.784Z,74.48
2022-12-11T06:45:30.759Z,74.68
2022-12-11T06:47:58.745Z,74.66
2022-12-11T06:50:25.975Z,74.74
2022-12-11T06:52:52.963Z,74.78
2022-12-11T06:55:19.896Z,74.87
2022-12-11T06:57:46.856Z,74.47
2022-12-11T07:00:14.587Z,75.17
2022-12-11T07:02:41.666Z,75.86
2022-12-11T07:05:09.376Z,75.44
2022-12-11T07:07:39.651Z,75.20
2022-12-11T07:10:08.585Z,74.51
2022-12-11T07:12:36.365Z,74.77
2022-12-11T07:15:05.070Z,74.11
2022-12-11T07:17:32.005Z,74.95
2022-12-11T07:19:58.896Z,74.18
2022-12-11T07:22:25.852Z,74.40
2022-12-11T07:24:52.711Z,73.89
2022-12-11T07:27:19.662Z,74.20
2022-12-11T07:29:46.664Z,74.00
2022-12-11T07:32:15.072Z,73.75
2022-12-11T07:34:44.125Z,73.54
2022-12-11T07:37:14.455Z,73.96
2022-12-11T07:39:42.245Z,73.89
2022-12-11T07:42:09.343Z,73.80
2022-12-11T07:44:36.228Z,73.31
2022-12-11T07:47:04.046Z,73.10
2022-12-11T07:49:31.451Z,73.34
2022-12-11T07:51:58.706Z,73.16
2022-12-11T07:54:26.026Z,73.29
2022-12-11T07:56:53.875Z,73.21
2022-12-11T07:59:21.156Z,72.94
2022-12-11T08:01:48.262Z,72.87
2022-12-11T08:04:15.230Z,73.41
2022-12-11T08:06:44.239Z,72.84
2022-12-11T08:09:20.364Z,72.65
2022-12-11T08:11:50.511Z,72.34
2022-12-11T08:14:19.081Z,72.88
2022-12-11T08:16:46.067Z,72.97
2022-12-11T08:19:14.067Z,73.06
2022-12-11T08:21:41.465Z,73.53
2022-12-11T08:24:09.374Z,72.58
2022-12-11T08:26:36.706Z,73.17
2022-12-11T08:29:04.379Z,73.25
2022-12-11T08:31:32.986Z,73.25
2022-12-11T08:33:59.957Z,72.81
2022-12-11T08:36:27.231Z,72.93
2022-12-11T08:38:55.816Z,72.93
2022-12-11T08:41:26.288Z,73.06
2022-12-11T08:43:54.094Z,72.68
2022-12-11T08:46:23.640Z,72.83
2022-12-11T08:48:51.017Z,73.39
2022-12-11T08:51:20.605Z,73.04
2022-12-11T08:53:47.576Z,73.28
2022-12-11T08:56:17.349Z,73.13
2022-12-11T08:58:46.815Z,74.08
2022-12-11T09:01:16.701Z,74.03
2022-12-11T09:03:43.965Z,73.94
2022-12-11T09:06:14.607Z,73.69
2022-12-11T09:08:47.208Z,73.81
2022-12-11T09:11:27.621Z,73.55
2022-12-11T09:13:54.892Z,73.35
2022-12-11T09:16:24.740Z,72.90
2022-12-11T09:18:53.870Z,73.15
2022-12-11T09:21:23.785Z,73.25
2022-12-11T09:23:57.752Z,73.39
2022-12-11T09:26:25.878Z,73.50
2022-12-11T09:28:52.851Z,72.80
2022-12-11T09:31:29.051Z,73.16
2022-12-11T09:33:58.457Z,73.40
2022-12-11T09:36:26.093Z,73.73
2022-12-11T09:38:53.546Z,72.72
2022-12-11T09:41:23.445Z,72.92
2022-12-11T09:44:20.939Z,72.83
2022-12-11T09:46:50.848Z,72.62
2022-12-11T09:49:28.892Z,72.96
2022-12-11T09:52:31.069Z,72.87
2022-12-11T09:55:02.441Z,72.61
2022-12-11T09:57:33.895Z,72.68
2022-12-11T10:00:11.510Z,73.22
2022-12-11T10:02:54.154Z,72.74
2022-12-11T10:05:57.376Z,73.24
2022-12-11T10:08:48.581Z,72.86
2022-12-11T10:11:28.448Z,73.43
2022-12-11T10:14:22.488Z,72.84
2022-12-11T10:16:54.722Z,72.27
2022-12-11T10:19:32.668Z,72.22
2022-12-11T10:22:01.623Z,72.47
2022-12-11T10:27:33.410Z,72.44
2022-12-11T10:30:08.228Z,72.41
2022-12-11T10:32:47.405Z,73.28
2022-12-11T10:35:38.640Z,73.11
2022-12-11T10:38:20.353Z,73.11
2022-12-11T10:40:55.445Z,73.17
2022-12-11T10:43:37.056Z,73.31
2022-12-11T10:46:05.953Z,73.51
2022-12-11T10:48:33.204Z,72.88
2022-12-11T10:51:06.745Z,72.30
2022-12-11T10:53:34.452Z,73.20
2022-12-11T10:56:02.383Z,72.04
2022-12-11T10:58:32.533Z,72.65
2022-12-11T11:01:28.699Z,73.25
2022-12-11T11:04:02.631Z,72.07
2022-12-11T11:06:29.630Z,72.69
2022-12-11T11:08:58.952Z,73.10
2022-12-11T11:11:37.549Z,73.09
2022-12-11T11:14:05.543Z,73.15
2022-12-11T11:16:37.252Z,73.45
2022-12-11T11:19:04.657Z,72.95
2022-12-11T11:21:32.812Z,73.05
2022-12-11T11:24:00.235Z,72.67
2022-12-11T11:26:43.516Z,72.67
2022-12-11T11:29:28.760Z,73.35
2022-12-11T11:31:55.784Z,73.31
2022-12-11T11:34:22.765Z,73.29
2022-12-11T11:36:58.807Z,73.22
2022-12-11T11:39:25.776Z,74.00
2022-12-11T11:42:15.126Z,73.93
2022-12-11T11:44:59.421Z,74.10
2022-12-11T11:47:31.791Z,73.77
2022-12-11T11:50:07.869Z,73.55
2022-12-11T11:52:40.692Z,73.17
2022-12-11T11:55:35.260Z,73.32
2022-12-11T11:58:20.264Z,73.80
2022-12-11T12:00:47.744Z,73.70
2022-12-11T12:03:21.724Z,74.01
2022-12-11T12:06:04.596Z,73.82
2022-12-11T12:09:13.429Z,73.65
2022-12-11T12:11:57.054Z,73.86
2022-12-11T12:14:53.952Z,73.69
2022-12-11T12:17:30.603Z,73.43
2022-12-11T12:20:17.369Z,73.26
2022-12-11T12:22:56.407Z,73.53
2022-12-11T12:25:29.382Z,74.13
2022-12-11T12:28:28.493Z,73.47
2022-12-11T12:31:02.777Z,73.57
2022-12-11T12:33:48.077Z,73.68
2022-12-11T12:36:27.380Z,73.71
2022-12-11T12:39:01.565Z,73.12
2022-12-11T12:41:48.463Z,74.44
2022-12-11T12:44:19.182Z,73.95
2022-12-11T12:46:51.585Z,74.05
2022-12-11T12:49:43.327Z,74.32
2022-12-11T12:52:30.952Z,75.21
2022-12-11T12:55:01.650Z,75.51
2022-12-11T12:57:28.583Z,74.99
2022-12-11T12:59:55.494Z,74.59
2022-12-11T13:02:22.874Z,74.67
2022-12-11T13:04:58.737Z,74.33
2022-12-11T13:07:29.200Z,74.75
2022-12-11T13:10:04.502Z,74.66
2022-12-11T13:12:45.426Z,75.05
2022-12-11T13:15:42.258Z,75.26
2022-12-11T13:18:38.492Z,74.52
2022-12-11T13:21:35.023Z,74.98
2022-12-11T13:24:14.153Z,74.84
2022-12-11T13:26:42.285Z,74.71
2022-12-11T13:29:31.018Z,74.71
2022-12-11T13:32:01.221Z,75.04
2022-12-11T13:34:33.143Z,74.80
2022-12-11T13:37:02.285Z,74.58
2022-12-11T13:39:39.270Z,75.03
2022-12-11T13:42:18.351Z,75.29
2022-12-11T13:44:49.075Z,75.60
2022-12-11T13:47:18.918Z,75.50
2022-12-11T13:49:50.147Z,75.23
2022-12-11T13:52:20.492Z,75.25
2022-12-11T13:54:50.581Z,75.55
2022-12-11T13:57:23.945Z,75.08
2022-12-11T13:59:54.157Z,75.34
2022-12-11T14:02:36.717Z,75.87
2022-12-11T14:05:08.140Z,75.44
2022-12-11T14:07:56.877Z,75.57
2022-12-11T14:10:27.268Z,75.15
2022-12-11T14:12:54.058Z,75.40
2022-12-11T14:15:21.906Z,75.47
2022-12-11T14:17:51.929Z,75.04
2022-12-11T14:20:26.187Z,74.64
2022-12-11T14:23:22.003Z,74.68
2022-12-11T14:25:57.556Z,75.33
2022-12-11T14:28:26.848Z,74.87
2022-12-11T14:30:58.861Z,75.14
2022-12-11T14:33:35.371Z,75.68
2022-12-11T14:36:05.104Z,75.60
2022-12-11T14:39:21.543Z,75.64
2022-12-11T14:42:04.111Z,75.83
2022-12-11T14:44:45.026Z,75.38
2022-12-11T14:47:27.388Z,75.79
2022-12-11T14:50:05.073Z,75.71
2022-12-11T14:52:44.449Z,75.77
2022-12-11T14:55:33.969Z,75.52
2022-12-11T14:58:13.622Z,75.68
2022-12-11T15:00:41.101Z,75.66
2022-12-11T15:03:17.325Z,75.15
2022-12-11T15:05:53.116Z,75.26
2022-12-11T15:08:25.937Z,75.21
2022-12-11T15:11:11.292Z,75.59
2022-12-11T15:14:06.550Z,75.47
2022-12-11T15:16:38.426Z,75.22
2022-12-11T15:19:05.638Z,75.66
2022-12-11T15:21:35.583Z,76.01
2022-12-11T15:24:05.728Z,75.17
2022-12-11T15:26:47.947Z,75.71
2022-12-11T15:29:35.187Z,74.96
2022-12-11T15:32:09.627Z,75.71
2022-12-11T15:34:45.548Z,75.23
2022-12-11T15:37:23.173Z,75.94
2022-12-11T15:39:51.330Z,75.72
2022-12-11T15:42:41.350Z,75.86
2022-12-11T15:45:28.850Z,75.78
2022-12-11T15:47:56.409Z,75.87
2022-12-11T15:50:30.132Z,75.70
2022-12-11T15:52:58.359Z,76.25
2022-12-11T15:55:28.802Z,75.61
2022-12-11T15:58:03.394Z,76.00
2022-12-11T16:00:30.424Z,75.65
2022-12-11T16:02:58.172Z,76.46
2022-12-11T16:05:34.121Z,75.42
2022-12-11T16:08:01.501Z,76.12
2022-12-11T16:10:28.946Z,76.44
2022-12-11T16:12:56.001Z,75.83
2022-12-11T16:15:24.198Z,75.87
2022-12-11T16:18:03.653Z,76.39
2022-12-11T16:20:31.663Z,76.18
2022-12-11T16:22:59.304Z,76.38
2022-12-11T16:25:27.890Z,76.70
2022-12-11T16:28:02.208Z,76.23
2022-12-11T16:30:29.761Z,76.20
2022-12-11T16:32:59.152Z,75.72
2022-12-11T16:35:26.520Z,76.23
2022-12-11T16:37:54.567Z,76.26
2022-12-11T16:40:22.605Z,75.77
2022-12-11T16:42:50.143Z,76.00
2022-12-11T16:45:21.821Z,75.96
2022-12-11T16:47:52.678Z,75.79
2022-12-11T16:50:19.797Z,75.57
2022-12-11T16:52:46.974Z,75.41
2022-12-11T16:55:15.016Z,76.18
2022-12-11T16:57:42.761Z,75.15
2022-12-11T17:00:11.375Z,75.56
2022-12-11T17:02:38.422Z,75.48
2022-12-11T17:05:05.771Z,75.03
2022-12-11T17:07:33.525Z,74.84
2022-12-11T17:10:00.804Z,74.92
2022-12-11T17:12:31.724Z,75.60
2022-12-11T17:14:58.776Z,75.34
2022-12-11T17:17:25.717Z,74.80
2022-12-11T17:19:52.708Z,75.19
2022-12-11T17:22:19.970Z,75.54
2022-12-11T17:24:47.698Z,75.01
2022-12-11T17:27:14.693Z,75.13
2022-12-11T17:29:41.970Z,74.90
2022-12-11T17:32:09.233Z,75.11
2022-12-11T17:34:38.559Z,75.40
2022-12-11T17:37:06.330Z,75.15
2022-12-11T17:39:33.750Z,75.27
2022-12-11T17:42:00.960Z,75.23
2022-12-11T17:44:29.013Z,74.98
2022-12-11T17:46:57.486Z,75.15
2022-12-11T17:49:25.669Z,75.07
2022-12-11T17:51:53.137Z,75.65
2022-12-11T17:54:20.345Z,75.14
2022-12-11T17:56:47.624Z,75.21
2022-12-11T17:59:14.673Z,75.09
2022-12-11T18:01:41.591Z,74.90
2022-12-11T18:04:09.117Z,75.14
2022-12-11T18:06:43.595Z,74.66
2022-12-11T18:09:13.902Z,74.38
2022-12-11T18:11:41.185Z,74.79
2022-12-11T18:14:12.342Z,75.06
2022-12-11T18:16:42.415Z,74.83
2022-12-11T18:19:09.598Z,74.54
2022-12-11T18:21:40.657Z,75.36
2022-12-11T18:24:08.149Z,75.50
2022-12-11T18:26:36.336Z,75.01
2022-12-11T18:29:04.609Z,74.97
2022-12-11T18:31:31.633Z,74.56
2022-12-11T18:33:58.776Z,74.59
2022-12-11T18:36:25.813Z,74.15
2022-12-11T18:38:52.966Z,74.48
2022-12-11T18:41:20.563Z,74.67
2022-12-11T18:43:47.881Z,74.50
2022-12-11T18:46:19.147Z,74.51
2022-12-11T18:48:48.983Z,75.15
2022-12-11T18:51:19.057Z,74.54
2022-12-11T18:53:46.504Z,74.59
2022-12-11T18:56:16.078Z,74.76
2022-12-11T18:58:43.375Z,74.30
2022-12-11T19:01:19.477Z,74.45
2022-12-11T19:03:47.519Z,74.43
2022-12-11T19:06:21.472Z,74.95
2022-12-11T19:08:48.804Z,74.24
2022-12-11T19:11:21.465Z,74.53
2022-12-11T19:13:48.735Z,74.92
2022-12-11T19:16:24.185Z,74.68
2022-12-11T19:18:51.777Z,73.89
2022-12-11T19:21:19.362Z,73.75
2022-12-11T19:23:47.782Z,74.31
2022-12-11T19:26:21.652Z,73.91
2022-12-11T19:28:50.860Z,73.06
2022-12-11T19:31:23.453Z,73.64
2022-12-11T19:33:50.574Z,73.86
2022-12-11T19:36:20.963Z,74.32
2022-12-11T19:38:48.583Z,74.40
2022-12-11T19:41:26.760Z,73.99
2022-12-11T19:43:56.394Z,73.88
2022-12-11T19:46:24.303Z,73.51
2022-12-11T19:48:53.257Z,73.35
2022-12-11T19:51:35.150Z,73.30
2022-12-11T19:54:03.111Z,73.47
2022-12-11T19:56:30.882Z,73.69
2022-12-11T19:58:58.962Z,73.59
2022-12-11T20:01:29.220Z,73.22
2022-12-11T20:03:58.990Z,73.66
2022-12-11T20:06:29.248Z,73.54
2022-12-11T20:08:56.578Z,73.46
2022-12-11T20:11:24.163Z,73.61
2022-12-11T20:13:51.661Z,73.93
2022-12-11T20:16:33.325Z,73.47
2022-12-11T20:19:07.608Z,73.13
2022-12-11T20:21:34.558Z,73.35
2022-12-11T20:24:01.568Z,73.57
2022-12-11T20:26:28.528Z,73.13
2022-12-11T20:28:55.838Z,73.85
2022-12-11T20:31:25.642Z,73.23
2022-12-11T20:33:56.367Z,72.83
2022-12-11T20:36:25.405Z,73.11
2022-12-11T20:38:52.707Z,73.73
2022-12-11T20:41:22.444Z,74.11
2022-12-11T20:43:49.685Z,73.28
2022-12-11T20:46:18.125Z,73.00
2022-12-11T20:48:46.532Z,73.23
2022-12-11T20:51:19.675Z,73.34
2022-12-11T20:53:49.709Z,73.38
2022-12-11T20:56:18.725Z,73.35
2022-12-11T20:58:46.522Z,73.27
2022-12-11T21:01:22.313Z,73.00
2022-12-11T21:03:50.154Z,72.88
2022-12-11T21:06:34.272Z,73.26
2022-12-11T21:09:07.553Z,73.42
2022-12-11T21:11:35.683Z,73.35
2022-12-11T21:14:02.822Z,73.45
2022-12-11T21:16:29.829Z,73.44
2022-12-11T21:18:57.910Z,72.93
2022-12-11T21:21:25.777Z,73.31
2022-12-11T21:23:52.701Z,73.20
2022-12-11T21:26:20.045Z,73.19
2022-12-11T21:28:47.240Z,73.06
2022-12-11T21:31:17.738Z,73.00
2022-12-11T21:33:45.069Z,73.61
2022-12-11T21:36:14.210Z,73.58
2022-12-11T21:38:42.878Z,73.07
2022-12-11T21:41:13.214Z,72.46
2022-12-11T21:44:00.478Z,73.04
2022-12-11T21:46:29.268Z,73.04
2022-12-11T21:48:56.271Z,72.86
2022-12-11T21:51:29.666Z,72.38
2022-12-11T21:53:59.945Z,72.36
2022-12-11T21:56:28.364Z,72.56
2022-12-11T21:58:55.843Z,72.27
2022-12-11T22:01:29.460Z,72.54
2022-12-11T22:03:57.089Z,72.19
2022-12-11T22:06:24.441Z,72.96
2022-12-11T22:08:51.435Z,72.48
2022-12-11T22:11:24.607Z,72.07
2022-12-11T22:13:51.939Z,71.88
2022-12-11T22:16:19.967Z,71.93
2022-12-11T22:18:47.071Z,72.10
2022-12-11T22:21:14.834Z,72.16
2022-12-11T22:23:43.072Z,72.77
2022-12-11T22:26:16.191Z,71.92
2022-12-11T22:28:43.204Z,71.64
2022-12-11T22:31:11.930Z,72.31
2022-12-11T22:33:39.350Z,72.60
2022-12-11T22:36:06.751Z,72.17
2022-12-11T22:38:34.999Z,72.01
2022-12-11T22:41:02.468Z,72.79
2022-12-11T22:43:29.377Z,73.10
2022-12-11T22:45:56.280Z,72.77
2022-12-11T22:48:23.314Z,72.63
2022-12-11T22:50:50.183Z,72.73
2022-12-11T22:53:17.104Z,73.07
2022-12-11T22:55:43.957Z,73.66
2022-12-11T22:58:10.875Z,73.28
2022-12-11T23:00:37.752Z,72.74
2022-12-11T23:03:04.853Z,72.79
2022-12-11T23:05:31.801Z,72.96
2022-12-11T23:07:58.880Z,73.26
2022-12-11T23:10:26.099Z,73.10
2022-12-11T23:12:53.031Z,73.00
2022-12-11T23:15:19.873Z,73.34
2022-12-11T23:17:46.977Z,72.91
2022-12-11T23:20:13.836Z,73.17
2022-12-11T23:22:40.693Z,72.31
2022-12-11T23:25:07.964Z,72.72
2022-12-11T23:27:34.921Z,73.23
2022-12-11T23:30:01.857Z,73.42
2022-12-11T23:32:28.854Z,72.84
2022-12-11T23:34:55.779Z,72.96
2022-12-11T23:37:22.671Z,72.01
2022-12-11T23:39:49.588Z,72.12
2022-12-11T23:42:16.880Z,72.58
2022-12-11T23:44:43.724Z,72.51
2022-12-11T23:47:10.723Z,72.87
2022-12-11T23:49:37.500Z,72.78
2022-12-11T23:52:04.697Z,72.68
2022-12-11T23:54:31.909Z,72.44
2022-12-11T23:56:58.816Z,72.24
2022-12-11T23:59:25.663Z,72.15
